sensor_id;sensor_type;location;lat;lon;timestamp;temperature;humidity
15095;DHT22;7648;52.264;9.632;2023-02-01T00:03:50;5.40;99.90
15095;DHT22;7648;52.264;9.632;2023-02-01T00:07:52;5.40;99.90
15095;DHT22;7648;52.264;9.632;2023-02-01T00:11:55;5.40;99.90
15095;DHT22;7648;52.264;9.632;2023-02-01T00:16:04;5.30;99.90
15095;DHT22;7648;52.264;9.632;2023-02-01T00:20:07;5.30;99.90
15095;DHT22;7648;52.264;9.632;2023-02-01T00:24:10;5.40;99.90
15095;DHT22;7648;52.264;9.632;2023-02-01T00:28:13;5.30;99.90
15095;DHT22;7648;52.264;9.632;2023-02-01T00:32:15;5.30;99.90
15095;DHT22;7648;52.264;9.632;2023-02-01T00:36:17;5.30;99.90
15095;DHT22;7648;52.264;9.632;2023-02-01T00:40:19;5.30;99.90
15095;DHT22;7648;52.264;9.632;2023-02-01T00:44:22;5.20;99.90
15095;DHT22;7648;52.264;9.632;2023-02-01T00:48:24;5.20;99.90
15095;DHT22;7648;52.264;9.632;2023-02-01T00:52:26;5.20;99.90
15095;DHT22;7648;52.264;9.632;2023-02-01T00:56:29;5.20;99.90
15095;DHT22;7648;52.264;9.632;2023-02-01T01:00:32;5.20;99.90
15095;DHT22;7648;52.264;9.632;2023-02-01T01:04:34;5.20;99.90
15095;DHT22;7648;52.264;9.632;2023-02-01T01:08:37;5.30;99.90
15095;DHT22;7648;52.264;9.632;2023-02-01T01:12:39;5.20;99.90
15095;DHT22;7648;52.264;9.632;2023-02-01T01:16:42;5.10;99.90
15095;DHT22;7648;52.264;9.632;2023-02-01T01:20:44;5.20;99.90
15095;DHT22;7648;52.264;9.632;2023-02-01T01:24:46;5.10;99.90
15095;DHT22;7648;52.264;9.632;2023-02-01T01:28:48;5.10;99.90
15095;DHT22;7648;52.264;9.632;2023-02-01T01:32:51;5.10;99.90
15095;DHT22;7648;52.264;9.632;2023-02-01T01:36:53;5.10;99.90
15095;DHT22;7648;52.264;9.632;2023-02-01T01:40:55;5.10;99.90
15095;DHT22;7648;52.264;9.632;2023-02-01T01:45:00;5.20;99.90
15095;DHT22;7648;52.264;9.632;2023-02-01T01:49:10;5.10;99.90
15095;DHT22;7648;52.264;9.632;2023-02-01T01:53:14;5.10;99.90
15095;DHT22;7648;52.264;9.632;2023-02-01T01:57:20;5.20;99.90
15095;DHT22;7648;52.264;9.632;2023-02-01T02:01:24;5.10;99.90
15095;DHT22;7648;52.264;9.632;2023-02-01T02:05:28;5.20;99.90
15095;DHT22;7648;52.264;9.632;2023-02-01T02:09:30;5.30;99.90
15095;DHT22;7648;52.264;9.632;2023-02-01T02:13:34;5.10;99.90
15095;DHT22;7648;52.264;9.632;2023-02-01T02:17:43;5.10;99.90
15095;DHT22;7648;52.264;9.632;2023-02-01T02:21:56;5.20;99.90
15095;DHT22;7648;52.264;9.632;2023-02-01T02:35:16;5.20;99.90
15095;DHT22;7648;52.264;9.632;2023-02-01T02:39:27;5.20;99.90
15095;DHT22;7648;52.264;9.632;2023-02-01T02:43:37;5.30;99.90
15095;DHT22;7648;52.264;9.632;2023-02-01T02:48:07;5.20;99.90
15095;DHT22;7648;52.264;9.632;2023-02-01T02:52:15;5.30;99.90
15095;DHT22;7648;52.264;9.632;2023-02-01T02:56:36;5.20;99.90
15095;DHT22;7648;52.264;9.632;2023-02-01T03:00:56;5.20;99.90
15095;DHT22;7648;52.264;9.632;2023-02-01T03:05:16;5.20;99.90
15095;DHT22;7648;52.264;9.632;2023-02-01T03:09:23;5.20;99.90
15095;DHT22;7648;52.264;9.632;2023-02-01T03:13:33;5.30;99.90
15095;DHT22;7648;52.264;9.632;2023-02-01T03:17:42;5.30;99.90
15095;DHT22;7648;52.264;9.632;2023-02-01T03:21:48;5.30;99.90
15095;DHT22;7648;52.264;9.632;2023-02-01T03:25:56;5.40;99.90
15095;DHT22;7648;52.264;9.632;2023-02-01T03:30:04;5.50;99.90
15095;DHT22;7648;52.264;9.632;2023-02-01T03:34:08;5.50;99.90
15095;DHT22;7648;52.264;9.632;2023-02-01T03:38:18;5.40;99.90
15095;DHT22;7648;52.264;9.632;2023-02-01T03:42:28;5.40;99.90
15095;DHT22;7648;52.264;9.632;2023-02-01T03:46:35;5.30;99.90
15095;DHT22;7648;52.264;9.632;2023-02-01T03:50:44;5.30;99.90
15095;DHT22;7648;52.264;9.632;2023-02-01T03:54:49;5.20;99.90
15095;DHT22;7648;52.264;9.632;2023-02-01T03:58:54;5.20;99.90
15095;DHT22;7648;52.264;9.632;2023-02-01T04:03:07;5.20;99.90
15095;DHT22;7648;52.264;9.632;2023-02-01T04:07:09;5.10;99.90
15095;DHT22;7648;52.264;9.632;2023-02-01T04:11:11;5.10;99.90
15095;DHT22;7648;52.264;9.632;2023-02-01T04:15:15;5.10;99.90
15095;DHT22;7648;52.264;9.632;2023-02-01T04:19:17;5.20;99.90
15095;DHT22;7648;52.264;9.632;2023-02-01T04:23:18;5.20;99.90
15095;DHT22;7648;52.264;9.632;2023-02-01T04:27:21;5.20;99.90
15095;DHT22;7648;52.264;9.632;2023-02-01T04:31:24;5.30;99.90
15095;DHT22;7648;52.264;9.632;2023-02-01T04:35:27;5.30;99.90
15095;DHT22;7648;52.264;9.632;2023-02-01T04:39:29;5.30;99.90
15095;DHT22;7648;52.264;9.632;2023-02-01T04:43:31;5.30;99.90
15095;DHT22;7648;52.264;9.632;2023-02-01T04:47:34;5.40;99.90
15095;DHT22;7648;52.264;9.632;2023-02-01T04:51:36;5.30;99.90
15095;DHT22;7648;52.264;9.632;2023-02-01T04:55:38;5.40;99.90
15095;DHT22;7648;52.264;9.632;2023-02-01T04:59:40;5.30;99.90
15095;DHT22;7648;52.264;9.632;2023-02-01T05:03:43;5.30;99.90
15095;DHT22;7648;52.264;9.632;2023-02-01T05:07:45;5.20;99.90
15095;DHT22;7648;52.264;9.632;2023-02-01T05:11:47;5.20;99.90
15095;DHT22;7648;52.264;9.632;2023-02-01T05:16:07;5.10;99.90
15095;DHT22;7648;52.264;9.632;2023-02-01T05:20:11;5.10;99.90
15095;DHT22;7648;52.264;9.632;2023-02-01T05:24:13;5.10;99.90
15095;DHT22;7648;52.264;9.632;2023-02-01T05:28:20;5.10;99.90
15095;DHT22;7648;52.264;9.632;2023-02-01T05:32:21;5.10;99.90
15095;DHT22;7648;52.264;9.632;2023-02-01T05:36:25;5.00;99.90
15095;DHT22;7648;52.264;9.632;2023-02-01T05:40:26;5.10;99.90
15095;DHT22;7648;52.264;9.632;2023-02-01T05:44:28;5.20;99.90
15095;DHT22;7648;52.264;9.632;2023-02-01T05:48:30;5.20;99.90
15095;DHT22;7648;52.264;9.632;2023-02-01T05:52:33;5.20;99.90
15095;DHT22;7648;52.264;9.632;2023-02-01T05:56:35;5.30;99.90
15095;DHT22;7648;52.264;9.632;2023-02-01T06:00:37;5.30;99.90
15095;DHT22;7648;52.264;9.632;2023-02-01T06:04:39;5.40;99.90
15095;DHT22;7648;52.264;9.632;2023-02-01T06:08:43;5.30;99.90
15095;DHT22;7648;52.264;9.632;2023-02-01T06:12:45;5.20;99.90
15095;DHT22;7648;52.264;9.632;2023-02-01T06:16:47;5.20;99.90
15095;DHT22;7648;52.264;9.632;2023-02-01T06:20:52;5.20;99.90
15095;DHT22;7648;52.264;9.632;2023-02-01T06:24:56;5.10;99.90
15095;DHT22;7648;52.264;9.632;2023-02-01T06:28:59;5.10;99.90
15095;DHT22;7648;52.264;9.632;2023-02-01T06:33:01;5.10;99.90
15095;DHT22;7648;52.264;9.632;2023-02-01T06:37:03;5.20;99.90
15095;DHT22;7648;52.264;9.632;2023-02-01T06:41:06;5.00;99.90
15095;DHT22;7648;52.264;9.632;2023-02-01T06:45:09;4.80;99.90
15095;DHT22;7648;52.264;9.632;2023-02-01T06:49:11;4.80;99.90
15095;DHT22;7648;52.264;9.632;2023-02-01T06:53:12;4.90;99.90
15095;DHT22;7648;52.264;9.632;2023-02-01T06:57:16;5.00;99.90
15095;DHT22;7648;52.264;9.632;2023-02-01T07:01:17;5.00;99.90
15095;DHT22;7648;52.264;9.632;2023-02-01T07:05:20;5.00;99.90
15095;DHT22;7648;52.264;9.632;2023-02-01T07:09:22;5.00;99.90
15095;DHT22;7648;52.264;9.632;2023-02-01T07:13:25;5.00;99.90
15095;DHT22;7648;52.264;9.632;2023-02-01T07:17:27;5.00;99.90
15095;DHT22;7648;52.264;9.632;2023-02-01T07:21:30;5.00;99.90
15095;DHT22;7648;52.264;9.632;2023-02-01T07:25:34;5.00;99.90
15095;DHT22;7648;52.264;9.632;2023-02-01T07:29:37;5.00;99.90
15095;DHT22;7648;52.264;9.632;2023-02-01T07:33:39;5.20;99.90
15095;DHT22;7648;52.264;9.632;2023-02-01T07:37:41;5.30;99.90
15095;DHT22;7648;52.264;9.632;2023-02-01T07:41:43;5.40;99.90
15095;DHT22;7648;52.264;9.632;2023-02-01T07:45:52;5.40;99.90
15095;DHT22;7648;52.264;9.632;2023-02-01T07:49:54;5.40;99.90
15095;DHT22;7648;52.264;9.632;2023-02-01T07:53:56;5.40;99.90
15095;DHT22;7648;52.264;9.632;2023-02-01T07:57:58;5.50;99.90
15095;DHT22;7648;52.264;9.632;2023-02-01T08:02:01;5.50;99.90
15095;DHT22;7648;52.264;9.632;2023-02-01T08:06:04;5.50;99.90
15095;DHT22;7648;52.264;9.632;2023-02-01T08:10:07;5.50;99.90
15095;DHT22;7648;52.264;9.632;2023-02-01T08:14:11;5.50;99.90
15095;DHT22;7648;52.264;9.632;2023-02-01T08:18:14;5.60;99.90
15095;DHT22;7648;52.264;9.632;2023-02-01T08:22:18;5.70;99.90
15095;DHT22;7648;52.264;9.632;2023-02-01T08:26:21;5.80;99.90
15095;DHT22;7648;52.264;9.632;2023-02-01T08:30:24;5.80;99.90
15095;DHT22;7648;52.264;9.632;2023-02-01T08:34:29;5.80;99.90
15095;DHT22;7648;52.264;9.632;2023-02-01T08:38:31;5.90;99.90
15095;DHT22;7648;52.264;9.632;2023-02-01T08:42:33;6.00;99.90
15095;DHT22;7648;52.264;9.632;2023-02-01T08:46:53;6.10;99.90
15095;DHT22;7648;52.264;9.632;2023-02-01T08:50:56;6.20;99.90
15095;DHT22;7648;52.264;9.632;2023-02-01T08:54:58;6.10;99.90
15095;DHT22;7648;52.264;9.632;2023-02-01T08:59:00;6.10;99.90
15095;DHT22;7648;52.264;9.632;2023-02-01T09:03:02;6.20;99.90
15095;DHT22;7648;52.264;9.632;2023-02-01T09:07:05;6.40;99.90
15095;DHT22;7648;52.264;9.632;2023-02-01T09:11:10;6.50;99.90
15095;DHT22;7648;52.264;9.632;2023-02-01T09:15:12;6.50;99.90
15095;DHT22;7648;52.264;9.632;2023-02-01T09:19:14;6.50;99.90
15095;DHT22;7648;52.264;9.632;2023-02-01T09:23:18;6.60;99.90
15095;DHT22;7648;52.264;9.632;2023-02-01T09:27:21;6.60;99.90
15095;DHT22;7648;52.264;9.632;2023-02-01T09:31:23;6.50;99.90
15095;DHT22;7648;52.264;9.632;2023-02-01T09:35:25;6.50;99.90
15095;DHT22;7648;52.264;9.632;2023-02-01T09:39:29;6.50;99.90
15095;DHT22;7648;52.264;9.632;2023-02-01T09:43:40;6.50;99.90
15095;DHT22;7648;52.264;9.632;2023-02-01T09:47:51;6.50;99.90
15095;DHT22;7648;52.264;9.632;2023-02-01T09:51:56;6.60;99.90
15095;DHT22;7648;52.264;9.632;2023-02-01T09:56:04;6.60;99.90
15095;DHT22;7648;52.264;9.632;2023-02-01T10:00:14;6.60;99.90
15095;DHT22;7648;52.264;9.632;2023-02-01T10:04:18;6.60;99.90
15095;DHT22;7648;52.264;9.632;2023-02-01T10:08:28;6.70;99.90
15095;DHT22;7648;52.264;9.632;2023-02-01T10:13:04;6.70;99.90
15095;DHT22;7648;52.264;9.632;2023-02-01T10:17:13;6.70;99.90
15095;DHT22;7648;52.264;9.632;2023-02-01T10:21:32;6.80;99.90
15095;DHT22;7648;52.264;9.632;2023-02-01T10:25:45;6.80;99.90
15095;DHT22;7648;52.264;9.632;2023-02-01T10:29:54;6.90;99.90
15095;DHT22;7648;52.264;9.632;2023-02-01T10:34:01;6.90;99.90
15095;DHT22;7648;52.264;9.632;2023-02-01T10:38:22;7.00;99.90
15095;DHT22;7648;52.264;9.632;2023-02-01T10:42:27;7.00;99.90
15095;DHT22;7648;52.264;9.632;2023-02-01T10:46:31;7.00;99.90
15095;DHT22;7648;52.264;9.632;2023-02-01T10:50:37;7.00;99.90
15095;DHT22;7648;52.264;9.632;2023-02-01T10:54:41;7.00;99.90
15095;DHT22;7648;52.264;9.632;2023-02-01T10:58:44;7.00;99.90
15095;DHT22;7648;52.264;9.632;2023-02-01T11:02:48;7.00;99.90
15095;DHT22;7648;52.264;9.632;2023-02-01T11:06:53;7.00;99.90
15095;DHT22;7648;52.264;9.632;2023-02-01T11:10:58;7.00;99.90
15095;DHT22;7648;52.264;9.632;2023-02-01T11:15:15;7.00;99.90
15095;DHT22;7648;52.264;9.632;2023-02-01T11:19:20;6.90;99.90
15095;DHT22;7648;52.264;9.632;2023-02-01T11:23:24;6.90;99.90
15095;DHT22;7648;52.264;9.632;2023-02-01T11:27:27;6.90;99.90
15095;DHT22;7648;52.264;9.632;2023-02-01T11:31:30;7.00;99.90
15095;DHT22;7648;52.264;9.632;2023-02-01T11:35:37;7.00;99.90
15095;DHT22;7648;52.264;9.632;2023-02-01T11:39:40;7.00;99.90
15095;DHT22;7648;52.264;9.632;2023-02-01T11:43:52;7.00;99.90
15095;DHT22;7648;52.264;9.632;2023-02-01T11:47:56;7.00;99.90
15095;DHT22;7648;52.264;9.632;2023-02-01T11:52:09;7.00;99.90
15095;DHT22;7648;52.264;9.632;2023-02-01T11:56:22;7.00;99.90
15095;DHT22;7648;52.264;9.632;2023-02-01T12:00:41;7.00;99.90
15095;DHT22;7648;52.264;9.632;2023-02-01T12:05:07;7.00;99.90
15095;DHT22;7648;52.264;9.632;2023-02-01T12:09:26;7.00;99.90
15095;DHT22;7648;52.264;9.632;2023-02-01T12:13:41;7.00;99.90
15095;DHT22;7648;52.264;9.632;2023-02-01T12:22:29;7.10;99.90
15095;DHT22;7648;52.264;9.632;2023-02-01T12:26:55;7.10;99.90
15095;DHT22;7648;52.264;9.632;2023-02-01T12:31:36;7.00;99.90
15095;DHT22;7648;52.264;9.632;2023-02-01T12:36:01;6.70;99.90
15095;DHT22;7648;52.264;9.632;2023-02-01T12:40:17;6.40;99.90
15095;DHT22;7648;52.264;9.632;2023-02-01T12:44:40;6.30;99.90
15095;DHT22;7648;52.264;9.632;2023-02-01T12:48:52;6.10;99.90
15095;DHT22;7648;52.264;9.632;2023-02-01T12:53:01;6.10;99.90
15095;DHT22;7648;52.264;9.632;2023-02-01T12:57:12;6.10;99.90
15095;DHT22;7648;52.264;9.632;2023-02-01T13:01:20;6.20;99.90
15095;DHT22;7648;52.264;9.632;2023-02-01T13:05:28;6.30;99.90
15095;DHT22;7648;52.264;9.632;2023-02-01T13:09:39;6.30;99.90
15095;DHT22;7648;52.264;9.632;2023-02-01T13:13:48;6.30;99.90
15095;DHT22;7648;52.264;9.632;2023-02-01T13:18:01;6.30;99.90
15095;DHT22;7648;52.264;9.632;2023-02-01T13:22:09;6.20;99.90
15095;DHT22;7648;52.264;9.632;2023-02-01T13:26:14;6.10;99.90
15095;DHT22;7648;52.264;9.632;2023-02-01T13:30:19;6.00;99.90
15095;DHT22;7648;52.264;9.632;2023-02-01T13:34:58;5.90;99.90
15095;DHT22;7648;52.264;9.632;2023-02-01T13:44:02;5.70;99.90
15095;DHT22;7648;52.264;9.632;2023-02-01T13:53:31;5.70;99.90
15095;DHT22;7648;52.264;9.632;2023-02-01T13:57:37;3.70;99.90
15095;DHT22;7648;52.264;9.632;2023-02-01T14:01:39;2.80;99.90
15095;DHT22;7648;52.264;9.632;2023-02-01T14:06:00;2.40;99.90
15095;DHT22;7648;52.264;9.632;2023-02-01T14:14:45;2.40;99.90
15095;DHT22;7648;52.264;9.632;2023-02-01T14:19:07;2.30;99.90
15095;DHT22;7648;52.264;9.632;2023-02-01T14:23:15;2.30;99.90
15095;DHT22;7648;52.264;9.632;2023-02-01T14:27:20;2.30;99.90
15095;DHT22;7648;52.264;9.632;2023-02-01T14:31:33;2.30;99.90
15095;DHT22;7648;52.264;9.632;2023-02-01T14:35:35;2.40;99.90
15095;DHT22;7648;52.264;9.632;2023-02-01T14:39:49;2.50;99.90
15095;DHT22;7648;52.264;9.632;2023-02-01T14:44:21;2.90;99.90
15095;DHT22;7648;52.264;9.632;2023-02-01T14:48:44;3.00;99.90
15095;DHT22;7648;52.264;9.632;2023-02-01T14:53:03;3.10;99.90
15095;DHT22;7648;52.264;9.632;2023-02-01T14:57:12;3.20;99.90
15095;DHT22;7648;52.264;9.632;2023-02-01T15:01:18;3.40;99.90
15095;DHT22;7648;52.264;9.632;2023-02-01T15:05:29;3.40;99.90
15095;DHT22;7648;52.264;9.632;2023-02-01T15:09:35;3.50;99.90
15095;DHT22;7648;52.264;9.632;2023-02-01T15:13:38;3.60;99.90
15095;DHT22;7648;52.264;9.632;2023-02-01T15:17:40;3.60;99.90
15095;DHT22;7648;52.264;9.632;2023-02-01T15:21:46;3.70;99.90
15095;DHT22;7648;52.264;9.632;2023-02-01T15:25:49;3.70;99.90
15095;DHT22;7648;52.264;9.632;2023-02-01T15:29:51;3.70;99.90
15095;DHT22;7648;52.264;9.632;2023-02-01T15:33:56;3.70;99.90
15095;DHT22;7648;52.264;9.632;2023-02-01T15:42:40;3.80;99.90
15095;DHT22;7648;52.264;9.632;2023-02-01T15:46:50;3.80;99.90
15095;DHT22;7648;52.264;9.632;2023-02-01T15:50:52;4.00;99.90
15095;DHT22;7648;52.264;9.632;2023-02-01T15:54:58;4.10;99.90
15095;DHT22;7648;52.264;9.632;2023-02-01T15:59:04;4.10;99.90
15095;DHT22;7648;52.264;9.632;2023-02-01T16:03:24;4.20;99.90
15095;DHT22;7648;52.264;9.632;2023-02-01T16:07:28;4.30;99.90
15095;DHT22;7648;52.264;9.632;2023-02-01T16:11:32;4.30;99.90
15095;DHT22;7648;52.264;9.632;2023-02-01T16:15:36;4.30;99.90
15095;DHT22;7648;52.264;9.632;2023-02-01T16:19:37;4.40;99.90
15095;DHT22;7648;52.264;9.632;2023-02-01T16:23:40;4.40;99.90
15095;DHT22;7648;52.264;9.632;2023-02-01T16:27:42;4.50;99.90
15095;DHT22;7648;52.264;9.632;2023-02-01T16:31:45;4.50;99.90
15095;DHT22;7648;52.264;9.632;2023-02-01T16:35:50;4.60;99.90
15095;DHT22;7648;52.264;9.632;2023-02-01T16:39:52;4.60;99.90
15095;DHT22;7648;52.264;9.632;2023-02-01T16:43:55;4.50;99.90
15095;DHT22;7648;52.264;9.632;2023-02-01T16:47:58;4.60;99.90
15095;DHT22;7648;52.264;9.632;2023-02-01T16:52:00;4.70;99.90
15095;DHT22;7648;52.264;9.632;2023-02-01T16:56:08;4.70;99.90
15095;DHT22;7648;52.264;9.632;2023-02-01T17:00:12;4.80;99.90
15095;DHT22;7648;52.264;9.632;2023-02-01T17:04:17;4.90;99.90
15095;DHT22;7648;52.264;9.632;2023-02-01T17:08:25;4.90;99.90
15095;DHT22;7648;52.264;9.632;2023-02-01T17:12:30;4.90;99.90
15095;DHT22;7648;52.264;9.632;2023-02-01T17:16:32;5.00;99.90
15095;DHT22;7648;52.264;9.632;2023-02-01T17:20:35;5.00;99.90
15095;DHT22;7648;52.264;9.632;2023-02-01T17:24:37;5.00;99.90
15095;DHT22;7648;52.264;9.632;2023-02-01T17:28:39;5.00;99.90
15095;DHT22;7648;52.264;9.632;2023-02-01T17:32:41;5.00;99.90
15095;DHT22;7648;52.264;9.632;2023-02-01T17:36:45;5.10;99.90
15095;DHT22;7648;52.264;9.632;2023-02-01T17:40:47;5.10;99.90
15095;DHT22;7648;52.264;9.632;2023-02-01T17:44:50;5.20;99.90
15095;DHT22;7648;52.264;9.632;2023-02-01T17:48:53;5.30;99.90
15095;DHT22;7648;52.264;9.632;2023-02-01T17:52:56;5.40;99.90
15095;DHT22;7648;52.264;9.632;2023-02-01T17:56:59;5.40;99.90
15095;DHT22;7648;52.264;9.632;2023-02-01T18:01:03;5.40;99.90
15095;DHT22;7648;52.264;9.632;2023-02-01T18:05:13;5.50;99.90
15095;DHT22;7648;52.264;9.632;2023-02-01T18:09:18;5.40;99.90
15095;DHT22;7648;52.264;9.632;2023-02-01T18:13:20;5.50;99.90
15095;DHT22;7648;52.264;9.632;2023-02-01T18:17:22;5.50;99.90
15095;DHT22;7648;52.264;9.632;2023-02-01T18:21:30;5.60;99.90
15095;DHT22;7648;52.264;9.632;2023-02-01T18:25:34;5.50;99.90
15095;DHT22;7648;52.264;9.632;2023-02-01T18:29:38;5.40;99.90
15095;DHT22;7648;52.264;9.632;2023-02-01T18:33:39;5.40;99.90
15095;DHT22;7648;52.264;9.632;2023-02-01T18:37:41;5.30;99.90
15095;DHT22;7648;52.264;9.632;2023-02-01T18:41:46;5.30;99.90
15095;DHT22;7648;52.264;9.632;2023-02-01T18:45:48;5.30;99.90
15095;DHT22;7648;52.264;9.632;2023-02-01T18:49:50;5.30;99.90
15095;DHT22;7648;52.264;9.632;2023-02-01T18:53:52;5.50;99.90
15095;DHT22;7648;52.264;9.632;2023-02-01T18:57:55;5.50;99.90
15095;DHT22;7648;52.264;9.632;2023-02-01T19:01:57;5.70;99.90
15095;DHT22;7648;52.264;9.632;2023-02-01T19:05:59;5.60;99.90
15095;DHT22;7648;52.264;9.632;2023-02-01T19:10:01;5.70;99.90
15095;DHT22;7648;52.264;9.632;2023-02-01T19:14:05;5.80;99.90
15095;DHT22;7648;52.264;9.632;2023-02-01T19:18:08;5.80;99.90
15095;DHT22;7648;52.264;9.632;2023-02-01T19:22:10;5.80;99.90
15095;DHT22;7648;52.264;9.632;2023-02-01T19:26:13;5.80;99.90
15095;DHT22;7648;52.264;9.632;2023-02-01T19:30:17;5.80;99.90
15095;DHT22;7648;52.264;9.632;2023-02-01T19:34:20;5.80;99.90
15095;DHT22;7648;52.264;9.632;2023-02-01T19:38:21;5.90;99.90
15095;DHT22;7648;52.264;9.632;2023-02-01T19:42:24;5.80;99.90
15095;DHT22;7648;52.264;9.632;2023-02-01T19:46:27;5.90;99.90
15095;DHT22;7648;52.264;9.632;2023-02-01T19:50:29;5.70;99.90
15095;DHT22;7648;52.264;9.632;2023-02-01T19:54:31;5.60;99.90
15095;DHT22;7648;52.264;9.632;2023-02-01T19:58:32;5.50;99.90
15095;DHT22;7648;52.264;9.632;2023-02-01T20:02:36;5.60;99.90
15095;DHT22;7648;52.264;9.632;2023-02-01T20:06:39;5.50;99.90
15095;DHT22;7648;52.264;9.632;2023-02-01T20:10:47;5.60;99.90
15095;DHT22;7648;52.264;9.632;2023-02-01T20:14:49;5.50;99.90
15095;DHT22;7648;52.264;9.632;2023-02-01T20:18:53;5.50;99.90
15095;DHT22;7648;52.264;9.632;2023-02-01T20:22:55;5.50;99.90
15095;DHT22;7648;52.264;9.632;2023-02-01T20:26:57;5.40;99.90
15095;DHT22;7648;52.264;9.632;2023-02-01T20:30:59;5.40;99.90
15095;DHT22;7648;52.264;9.632;2023-02-01T20:35:03;5.50;99.90
15095;DHT22;7648;52.264;9.632;2023-02-01T20:39:05;5.60;99.90
15095;DHT22;7648;52.264;9.632;2023-02-01T20:43:07;5.50;99.90
15095;DHT22;7648;52.264;9.632;2023-02-01T20:47:09;5.50;99.90
15095;DHT22;7648;52.264;9.632;2023-02-01T20:51:14;5.50;99.90
15095;DHT22;7648;52.264;9.632;2023-02-01T20:55:16;5.40;99.90
15095;DHT22;7648;52.264;9.632;2023-02-01T20:59:18;5.40;99.90
15095;DHT22;7648;52.264;9.632;2023-02-01T21:03:20;5.50;99.90
15095;DHT22;7648;52.264;9.632;2023-02-01T21:07:24;5.50;99.90
15095;DHT22;7648;52.264;9.632;2023-02-01T21:11:26;5.50;99.90
15095;DHT22;7648;52.264;9.632;2023-02-01T21:15:28;5.60;99.90
15095;DHT22;7648;52.264;9.632;2023-02-01T21:19:30;5.60;99.90
15095;DHT22;7648;52.264;9.632;2023-02-01T21:23:43;5.60;99.90
15095;DHT22;7648;52.264;9.632;2023-02-01T21:27:45;5.60;99.90
15095;DHT22;7648;52.264;9.632;2023-02-01T21:31:47;5.70;99.90
15095;DHT22;7648;52.264;9.632;2023-02-01T21:35:49;5.70;99.90
15095;DHT22;7648;52.264;9.632;2023-02-01T21:39:53;5.60;99.90
15095;DHT22;7648;52.264;9.632;2023-02-01T21:43:55;5.70;99.90
15095;DHT22;7648;52.264;9.632;2023-02-01T21:47:57;5.60;99.90
15095;DHT22;7648;52.264;9.632;2023-02-01T21:52:01;5.60;99.90
15095;DHT22;7648;52.264;9.632;2023-02-01T21:56:05;5.70;99.90
15095;DHT22;7648;52.264;9.632;2023-02-01T22:00:08;5.60;99.90
15095;DHT22;7648;52.264;9.632;2023-02-01T22:04:12;5.70;99.90
15095;DHT22;7648;52.264;9.632;2023-02-01T22:08:13;5.80;99.90
15095;DHT22;7648;52.264;9.632;2023-02-01T22:12:17;5.80;99.90
15095;DHT22;7648;52.264;9.632;2023-02-01T22:16:19;5.80;99.90
15095;DHT22;7648;52.264;9.632;2023-02-01T22:20:21;5.70;99.90
15095;DHT22;7648;52.264;9.632;2023-02-01T22:24:23;5.80;99.90
15095;DHT22;7648;52.264;9.632;2023-02-01T22:28:26;5.70;99.90
15095;DHT22;7648;52.264;9.632;2023-02-01T22:32:28;5.60;99.90
15095;DHT22;7648;52.264;9.632;2023-02-01T22:36:29;5.60;99.90
15095;DHT22;7648;52.264;9.632;2023-02-01T22:40:31;5.60;99.90
15095;DHT22;7648;52.264;9.632;2023-02-01T22:44:34;5.60;99.90
15095;DHT22;7648;52.264;9.632;2023-02-01T22:48:37;5.60;99.90
15095;DHT22;7648;52.264;9.632;2023-02-01T22:52:40;5.60;99.90
15095;DHT22;7648;52.264;9.632;2023-02-01T22:56:41;5.60;99.90
15095;DHT22;7648;52.264;9.632;2023-02-01T23:00:45;5.50;99.90
15095;DHT22;7648;52.264;9.632;2023-02-01T23:04:47;5.50;99.90
15095;DHT22;7648;52.264;9.632;2023-02-01T23:08:52;5.50;99.90
15095;DHT22;7648;52.264;9.632;2023-02-01T23:12:54;5.50;99.90
15095;DHT22;7648;52.264;9.632;2023-02-01T23:16:57;5.40;99.90
15095;DHT22;7648;52.264;9.632;2023-02-01T23:21:02;5.40;99.90
15095;DHT22;7648;52.264;9.632;2023-02-01T23:25:05;5.40;99.90
15095;DHT22;7648;52.264;9.632;2023-02-01T23:29:08;5.50;99.90
15095;DHT22;7648;52.264;9.632;2023-02-01T23:33:11;5.40;99.90
15095;DHT22;7648;52.264;9.632;2023-02-01T23:37:13;5.40;99.90
15095;DHT22;7648;52.264;9.632;2023-02-01T23:41:17;5.40;99.90
15095;DHT22;7648;52.264;9.632;2023-02-01T23:45:19;5.30;99.90
15095;DHT22;7648;52.264;9.632;2023-02-01T23:49:22;5.40;99.90
15095;DHT22;7648;52.264;9.632;2023-02-01T23:53:24;5.40;99.90
15095;DHT22;7648;52.264;9.632;2023-02-01T23:57:26;5.40;99.90
